createdAt,value
2023-02-24T00:01:54.590Z,76.97
2023-02-24T00:04:21.676Z,76.51
2023-02-24T00:06:49.072Z,76.42
2023-02-24T00:09:21.967Z,76.87
2023-02-24T00:12:02.391Z,76.57
2023-02-24T00:14:33.316Z,77.08
2023-02-24T00:17:00.895Z,76.35
2023-02-24T00:19:32.785Z,76.22
2023-02-24T00:22:01.418Z,76.53
2023-02-24T00:24:29.031Z,76.36
2023-02-24T00:26:59.613Z,76.30
2023-02-24T00:29:29.113Z,76.57
2023-02-24T00:32:01.431Z,77.17
2023-02-24T00:34:33.992Z,76.90
2023-02-24T00:37:02.067Z,76.05
2023-02-24T00:39:34.655Z,76.33
2023-02-24T00:42:06.386Z,76.01
2023-02-24T00:44:46.343Z,76.75
2023-02-24T00:47:19.050Z,76.96
2023-02-24T00:49:46.125Z,76.44
2023-02-24T00:52:16.029Z,75.89
2023-02-24T00:54:45.322Z,76.43
2023-02-24T00:57:13.312Z,76.61
2023-02-24T00:59:40.580Z,77.40
2023-02-24T01:02:07.794Z,76.82
2023-02-24T01:04:35.446Z,77.38
2023-02-24T01:07:02.424Z,77.34
2023-02-24T01:09:31.332Z,76.96
2023-02-24T01:12:21.999Z,76.84
2023-02-24T01:14:52.226Z,77.12
2023-02-24T01:17:21.881Z,77.60
2023-02-24T01:19:50.448Z,77.96
2023-02-24T01:22:19.901Z,77.97
2023-02-24T01:24:47.609Z,77.53
2023-02-24T01:27:19.935Z,77.86
2023-02-24T01:29:50.329Z,77.50
2023-02-24T01:32:21.054Z,78.28
2023-02-24T01:34:52.218Z,78.63
2023-02-24T01:37:20.328Z,78.63
2023-02-24T01:39:48.215Z,79.05
2023-02-24T01:42:19.827Z,79.64
2023-02-24T01:44:47.774Z,78.48
2023-02-24T01:47:18.553Z,79.05
2023-02-24T01:49:49.939Z,80.09
2023-02-24T01:52:19.077Z,80.33
2023-02-24T01:54:58.711Z,80.31
2023-02-24T01:57:31.355Z,80.40
2023-02-24T02:00:11.298Z,80.64
2023-02-24T02:02:46.588Z,79.96
2023-02-24T02:05:14.786Z,80.65
2023-02-24T02:07:43.587Z,81.31
2023-02-24T02:10:11.372Z,80.70
2023-02-24T02:12:45.239Z,80.71
2023-02-24T02:15:14.745Z,80.35
2023-02-24T02:18:28.595Z,80.56
2023-02-24T02:21:36.365Z,81.35
2023-02-24T02:24:13.213Z,81.65
2023-02-24T02:26:58.944Z,81.82
2023-02-24T02:29:48.602Z,81.30
2023-02-24T02:32:35.235Z,81.53
2023-02-24T02:35:19.037Z,81.51
2023-02-24T02:38:04.457Z,82.58
2023-02-24T02:40:42.574Z,82.95
2023-02-24T02:43:49.416Z,83.14
2023-02-24T02:46:34.972Z,82.09
2023-02-24T02:49:09.012Z,82.22
2023-02-24T02:51:45.941Z,82.72
2023-02-24T02:54:18.236Z,82.67
2023-02-24T02:57:13.118Z,83.28
2023-02-24T02:59:49.458Z,83.26
2023-02-24T03:02:21.433Z,82.83
2023-02-24T03:04:57.829Z,82.60
2023-02-24T03:07:31.390Z,83.66
2023-02-24T03:10:10.808Z,84.05
2023-02-24T03:12:41.085Z,83.48
2023-02-24T03:15:11.360Z,82.24
2023-02-24T03:17:43.508Z,82.30
2023-02-24T03:20:16.732Z,82.61
2023-02-24T03:22:56.082Z,82.95
2023-02-24T03:25:28.772Z,83.51
2023-02-24T03:28:04.004Z,83.01
2023-02-24T03:30:50.541Z,82.62
2023-02-24T03:33:39.030Z,82.82
2023-02-24T03:36:06.130Z,82.26
2023-02-24T03:38:38.400Z,82.95
2023-02-24T03:41:11.458Z,82.87
2023-02-24T03:43:46.821Z,82.65
2023-02-24T03:46:17.147Z,82.03
2023-02-24T03:48:53.966Z,82.70
2023-02-24T03:51:23.539Z,83.53
2023-02-24T03:53:56.304Z,82.62
2023-02-24T03:56:27.052Z,82.58
2023-02-24T03:59:28.027Z,81.58
2023-02-24T04:02:30.235Z,82.10
2023-02-24T04:05:15.676Z,82.66
2023-02-24T04:08:04.240Z,83.13
2023-02-24T04:10:41.233Z,83.07
2023-02-24T04:13:28.468Z,81.68
2023-02-24T04:16:08.388Z,81.82
2023-02-24T04:18:35.932Z,82.49
2023-02-24T04:21:05.588Z,82.78
2023-02-24T04:23:43.282Z,82.71
2023-02-24T04:26:16.044Z,82.21
2023-02-24T04:28:44.125Z,82.05
2023-02-24T04:31:17.658Z,81.65
2023-02-24T04:33:50.555Z,82.35
2023-02-24T04:36:22.411Z,82.61
2023-02-24T04:38:49.898Z,82.28
2023-02-24T04:41:21.604Z,81.67
2023-02-24T04:43:53.332Z,81.55
2023-02-24T04:46:20.606Z,81.71
2023-02-24T04:48:47.700Z,81.89
2023-02-24T04:51:14.718Z,82.47
2023-02-24T04:53:41.626Z,82.19
2023-02-24T04:56:10.045Z,81.66
2023-02-24T04:58:38.699Z,80.95
2023-02-24T05:01:11.021Z,81.97
2023-02-24T05:03:43.432Z,82.19
2023-02-24T05:06:16.616Z,82.16
2023-02-24T05:08:44.195Z,82.37
2023-02-24T05:11:19.405Z,81.34
2023-02-24T05:13:47.216Z,81.52
2023-02-24T05:16:17.005Z,81.71
2023-02-24T05:18:44.920Z,82.45
2023-02-24T05:21:33.404Z,81.69
2023-02-24T05:24:06.653Z,81.37
2023-02-24T05:26:37.141Z,80.54
2023-02-24T05:29:05.804Z,80.60
2023-02-24T05:31:33.098Z,81.82
2023-02-24T05:34:03.284Z,81.46
2023-02-24T05:36:35.268Z,81.83
2023-02-24T05:39:12.143Z,80.77
2023-02-24T05:41:42.204Z,80.24
2023-02-24T05:44:13.488Z,80.72
2023-02-24T05:46:44.727Z,80.98
2023-02-24T05:49:24.157Z,80.51
2023-02-24T05:51:54.983Z,80.23
2023-02-24T05:54:29.799Z,79.35
2023-02-24T05:57:01.579Z,78.84
2023-02-24T05:59:33.195Z,78.92
2023-02-24T06:02:07.605Z,79.50
2023-02-24T06:04:39.748Z,79.92
2023-02-24T06:07:34.415Z,79.36
2023-02-24T06:10:04.933Z,78.69
2023-02-24T06:12:34.726Z,78.01
2023-02-24T06:15:07.625Z,78.65
2023-02-24T06:17:34.898Z,79.69
2023-02-24T06:20:01.858Z,79.48
2023-02-24T06:22:28.880Z,78.49
2023-02-24T06:24:56.992Z,78.44
2023-02-24T06:27:25.229Z,77.40
2023-02-24T06:29:54.394Z,78.34
2023-02-24T06:32:24.430Z,78.54
2023-02-24T06:34:52.118Z,78.13
2023-02-24T06:37:19.030Z,78.23
2023-02-24T06:39:46.267Z,78.47
2023-02-24T06:42:13.462Z,77.25
2023-02-24T06:44:41.493Z,77.53
2023-02-24T06:47:11.623Z,77.34
2023-02-24T06:49:38.588Z,77.23
2023-02-24T06:52:06.037Z,76.53
2023-02-24T06:54:36.198Z,76.35
2023-02-24T06:57:04.271Z,75.74
2023-02-24T06:59:32.344Z,76.23
2023-02-24T07:02:03.530Z,75.55
2023-02-24T07:04:30.678Z,75.95
2023-02-24T07:07:03.407Z,75.96
2023-02-24T07:09:31.637Z,75.55
2023-02-24T07:12:02.668Z,75.32
2023-02-24T07:14:31.468Z,75.12
2023-02-24T07:16:59.747Z,75.11
2023-02-24T07:19:29.595Z,75.81
2023-02-24T07:22:02.416Z,76.15
2023-02-24T07:24:36.739Z,76.15
2023-02-24T07:27:06.655Z,76.48
2023-02-24T07:29:35.089Z,76.85
2023-02-24T07:32:05.906Z,76.60
2023-02-24T07:34:33.970Z,77.03
2023-02-24T07:37:08.440Z,78.08
2023-02-24T07:39:37.222Z,78.31
2023-02-24T07:42:05.038Z,77.49
2023-02-24T07:44:44.626Z,78.85
2023-02-24T07:47:11.737Z,78.03
2023-02-24T07:49:41.119Z,77.92
2023-02-24T07:52:08.776Z,79.37
2023-02-24T07:54:37.242Z,80.35
2023-02-24T07:57:06.298Z,79.51
2023-02-24T07:59:37.664Z,80.07
2023-02-24T08:02:07.829Z,80.66
2023-02-24T08:04:36.481Z,79.55
2023-02-24T08:07:04.362Z,78.56
2023-02-24T08:09:44.927Z,77.90
2023-02-24T08:12:18.387Z,78.78
2023-02-24T08:14:51.150Z,78.21
2023-02-24T08:17:26.611Z,78.62
2023-02-24T08:20:15.682Z,77.13
2023-02-24T08:22:46.837Z,77.10
2023-02-24T08:25:19.181Z,77.14
2023-02-24T08:28:06.852Z,77.37
2023-02-24T08:30:38.969Z,75.86
2023-02-24T08:33:09.247Z,74.64
2023-02-24T08:35:44.951Z,74.92
2023-02-24T08:38:16.662Z,74.10
2023-02-24T08:40:54.579Z,74.07
2023-02-24T08:43:33.034Z,73.12
2023-02-24T08:46:21.590Z,71.60
2023-02-24T08:48:55.614Z,71.34
2023-02-24T08:51:28.885Z,71.00
2023-02-24T08:54:02.309Z,70.83
2023-02-24T08:56:34.835Z,70.09
2023-02-24T08:59:07.798Z,70.07
2023-02-24T09:01:38.704Z,69.93
2023-02-24T09:04:09.480Z,70.50
2023-02-24T09:06:38.313Z,70.37
2023-02-24T09:09:18.139Z,70.21
2023-02-24T09:11:59.577Z,69.66
2023-02-24T09:14:39.405Z,68.97
2023-02-24T09:17:11.365Z,69.43
2023-02-24T09:19:46.431Z,69.53
2023-02-24T09:22:40.953Z,69.08
2023-02-24T09:25:40.686Z,68.44
2023-02-24T09:28:20.103Z,68.01
2023-02-24T09:30:56.441Z,66.92
2023-02-24T09:33:39.085Z,68.23
2023-02-24T09:36:13.022Z,68.65
2023-02-24T09:39:02.250Z,68.49
2023-02-24T09:42:18.135Z,67.74
2023-02-24T10:17:40.358Z,71.63
2023-02-24T10:20:39.561Z,69.81
2023-02-24T10:23:14.746Z,68.30
2023-02-24T10:25:56.244Z,67.60
2023-02-24T10:28:46.070Z,66.13
2023-02-24T10:31:25.797Z,66.50
2023-02-24T10:34:07.565Z,65.07
2023-02-24T10:36:35.945Z,65.11
2023-02-24T10:39:26.569Z,64.11
2023-02-24T10:41:59.263Z,63.90
2023-02-24T10:44:36.354Z,63.92
2023-02-24T10:47:13.384Z,63.33
2023-02-24T10:50:03.787Z,63.21
2023-02-24T10:52:51.112Z,63.32
2023-02-24T10:55:44.878Z,62.03
2023-02-24T10:58:38.224Z,62.43
2023-02-24T11:01:14.211Z,62.47
2023-02-24T11:04:01.171Z,62.73
2023-02-24T11:06:41.636Z,63.88
2023-02-24T11:09:29.706Z,62.47
2023-02-24T11:12:19.447Z,61.76
2023-02-24T11:15:17.999Z,62.70
2023-02-24T11:17:53.300Z,62.77
2023-02-24T11:20:48.460Z,63.96
2023-02-24T11:23:33.646Z,62.48
2023-02-24T11:26:12.107Z,62.50
2023-02-24T11:28:46.952Z,62.63
2023-02-24T11:31:23.339Z,64.41
2023-02-24T11:34:04.594Z,64.83
2023-02-24T11:37:04.649Z,64.60
2023-02-24T11:40:01.498Z,64.08
2023-02-24T11:42:46.262Z,64.35
2023-02-24T11:45:27.116Z,64.75
2023-02-24T11:48:04.838Z,64.90
2023-02-24T11:51:27.776Z,62.70
2023-02-24T11:54:05.937Z,63.61
2023-02-24T11:56:53.561Z,63.52
2023-02-24T11:59:37.051Z,63.46
2023-02-24T12:02:11.268Z,64.74
2023-02-24T12:05:02.931Z,64.60
2023-02-24T12:07:35.039Z,64.51
2023-02-24T12:10:16.076Z,65.30
2023-02-24T12:13:02.788Z,65.45
2023-02-24T12:15:50.899Z,64.83
2023-02-24T12:18:33.420Z,64.96
2023-02-24T12:21:30.728Z,64.86
2023-02-24T12:23:58.930Z,63.72
2023-02-24T12:27:08.669Z,65.19
2023-02-24T12:29:54.670Z,64.78
2023-02-24T12:32:57.750Z,64.66
2023-02-24T12:35:36.594Z,65.03
2023-02-24T12:38:46.019Z,65.55
2023-02-24T12:41:29.420Z,65.67
2023-02-24T12:44:22.990Z,65.32
2023-02-24T12:47:04.274Z,65.27
2023-02-24T12:49:40.400Z,65.26
2023-02-24T12:52:10.333Z,65.50
2023-02-24T12:55:02.796Z,66.83
2023-02-24T12:58:05.175Z,66.24
2023-02-24T13:00:45.220Z,66.48
2023-02-24T13:03:33.813Z,66.97
2023-02-24T13:06:10.013Z,66.10
2023-02-24T13:08:57.351Z,65.63
2023-02-24T13:11:43.059Z,66.25
2023-02-24T13:14:22.448Z,66.61
2023-02-24T13:16:49.474Z,66.02
2023-02-24T13:19:43.493Z,66.39
2023-02-24T13:22:13.190Z,66.91
2023-02-24T13:25:01.111Z,65.67
2023-02-24T13:27:32.139Z,67.14
2023-02-24T13:30:07.634Z,66.44
2023-02-24T13:32:36.529Z,66.01
2023-02-24T13:35:26.286Z,66.08
2023-02-24T13:37:54.653Z,66.90
2023-02-24T13:40:28.230Z,67.66
2023-02-24T13:42:58.373Z,68.46
2023-02-24T13:45:34.125Z,67.92
2023-02-24T13:48:07.222Z,67.90
2023-02-24T13:51:01.498Z,68.55
2023-02-24T13:53:59.629Z,69.64
2023-02-24T13:56:38.397Z,70.18
2023-02-24T13:59:16.833Z,70.02
2023-02-24T14:02:00.404Z,71.31
2023-02-24T14:04:36.072Z,70.11
2023-02-24T14:07:09.300Z,70.24
2023-02-24T14:09:47.354Z,70.74
2023-02-24T14:12:21.513Z,71.76
2023-02-24T14:14:50.124Z,72.05
2023-02-24T14:17:28.406Z,72.23
2023-02-24T14:20:06.962Z,72.93
2023-02-24T14:22:34.840Z,72.11
2023-02-24T14:25:03.409Z,72.49
2023-02-24T14:27:30.534Z,74.14
2023-02-24T14:29:57.937Z,73.89
2023-02-24T14:32:27.191Z,74.95
2023-02-24T14:34:55.217Z,74.25
2023-02-24T14:37:26.431Z,74.35
2023-02-24T14:39:59.290Z,74.82
2023-02-24T14:42:28.438Z,75.19
2023-02-24T14:44:58.363Z,75.78
2023-02-24T14:47:28.951Z,75.99
2023-02-24T14:50:02.629Z,76.32
2023-02-24T14:52:44.052Z,75.54
2023-02-24T14:55:16.686Z,76.13
2023-02-24T14:58:00.265Z,77.36
2023-02-24T15:00:33.085Z,77.56
2023-02-24T15:03:14.686Z,78.14
2023-02-24T15:05:48.784Z,78.81
2023-02-24T15:08:27.027Z,78.80
2023-02-24T15:10:54.201Z,79.79
2023-02-24T15:13:42.608Z,80.48
2023-02-24T15:16:15.228Z,80.19
2023-02-24T15:18:42.859Z,80.99
2023-02-24T15:21:21.201Z,81.10
2023-02-24T15:23:48.343Z,81.18
2023-02-24T15:26:35.356Z,80.86
2023-02-24T15:29:21.269Z,81.00
2023-02-24T15:31:50.222Z,81.67
2023-02-24T15:34:20.678Z,81.63
2023-02-24T15:36:48.684Z,82.20
2023-02-24T15:39:23.607Z,81.50
2023-02-24T15:41:52.554Z,81.79
2023-02-24T15:44:31.357Z,81.72
2023-02-24T15:47:00.891Z,83.07
2023-02-24T15:49:27.989Z,83.07
2023-02-24T15:51:59.780Z,82.81
2023-02-24T15:54:34.534Z,83.13
2023-02-24T15:57:02.697Z,82.60
2023-02-24T15:59:29.883Z,82.80
2023-02-24T16:01:57.584Z,83.49
2023-02-24T16:04:26.942Z,84.02
2023-02-24T16:06:56.642Z,83.94
2023-02-24T16:09:37.308Z,83.37
2023-02-24T16:12:10.837Z,83.38
2023-02-24T16:14:39.187Z,82.62
2023-02-24T16:17:17.425Z,83.67
2023-02-24T16:19:44.512Z,83.92
2023-02-24T16:22:11.661Z,84.41
2023-02-24T16:24:38.690Z,84.58
2023-02-24T16:27:06.351Z,83.58
2023-02-24T16:29:33.255Z,83.26
2023-02-24T16:32:00.475Z,83.54
2023-02-24T16:34:27.853Z,84.66
2023-02-24T16:36:54.822Z,84.76
2023-02-24T16:39:21.748Z,85.37
2023-02-24T16:41:48.801Z,85.70
2023-02-24T16:44:16.033Z,84.37
2023-02-24T16:46:45.396Z,84.81
2023-02-24T16:49:20.422Z,84.55
2023-02-24T16:51:47.487Z,85.08
2023-02-24T16:54:14.463Z,85.06
2023-02-24T16:56:41.606Z,84.95
2023-02-24T16:59:08.558Z,83.76
2023-02-24T17:01:35.557Z,84.43
2023-02-24T17:04:05.390Z,84.76
2023-02-24T17:06:32.501Z,85.51
2023-02-24T17:08:59.541Z,85.74
2023-02-24T17:11:29.010Z,85.94
2023-02-24T17:13:55.943Z,84.66
2023-02-24T17:16:23.260Z,84.15
2023-02-24T17:18:50.553Z,84.69
2023-02-24T17:21:18.310Z,86.15
2023-02-24T17:23:45.285Z,85.84
2023-02-24T17:26:15.697Z,85.89
2023-02-24T17:28:43.259Z,85.84
2023-02-24T17:31:10.359Z,84.79
2023-02-24T17:33:37.341Z,84.71
2023-02-24T17:36:04.455Z,85.13
2023-02-24T17:38:31.433Z,85.59
2023-02-24T17:40:58.412Z,85.11
2023-02-24T17:43:25.310Z,85.97
2023-02-24T17:45:53.082Z,84.84
2023-02-24T17:48:20.891Z,84.35
2023-02-24T17:50:48.797Z,85.15
2023-02-24T17:53:15.961Z,85.94
2023-02-24T17:56:01.002Z,86.69
2023-02-24T17:58:28.777Z,85.91
2023-02-24T18:00:55.838Z,85.09
2023-02-24T18:03:23.103Z,84.85
2023-02-24T18:05:58.921Z,86.06
2023-02-24T18:08:25.991Z,87.12
2023-02-24T18:10:53.216Z,87.08
2023-02-24T18:13:20.264Z,86.67
2023-02-24T18:15:47.243Z,85.18
2023-02-24T18:18:14.219Z,85.10
2023-02-24T18:20:44.773Z,85.22
2023-02-24T18:23:12.661Z,86.54
2023-02-24T18:25:40.086Z,86.30
2023-02-24T18:28:07.325Z,86.51
2023-02-24T18:30:34.416Z,86.17
2023-02-24T18:33:02.211Z,85.23
2023-02-24T18:35:30.627Z,85.01
2023-02-24T18:37:57.723Z,85.69
2023-02-24T18:40:28.866Z,86.03
2023-02-24T18:42:56.036Z,86.38
2023-02-24T18:45:23.600Z,86.99
2023-02-24T18:47:52.129Z,85.74
2023-02-24T18:50:19.314Z,85.26
2023-02-24T18:52:46.341Z,86.42
2023-02-24T18:55:13.293Z,87.22
2023-02-24T18:57:41.302Z,87.50
2023-02-24T19:00:09.636Z,86.43
2023-02-24T19:02:36.894Z,86.00
2023-02-24T19:05:03.888Z,84.79
2023-02-24T19:07:30.768Z,84.97
2023-02-24T19:09:57.662Z,85.83
2023-02-24T19:12:24.664Z,86.68
2023-02-24T19:14:52.648Z,86.46
2023-02-24T19:17:20.186Z,86.94
2023-02-24T19:19:47.127Z,85.07
2023-02-24T19:22:14.101Z,85.68
2023-02-24T19:24:41.125Z,85.11
2023-02-24T19:27:08.912Z,85.84
2023-02-24T19:29:35.973Z,85.78
2023-02-24T19:32:03.122Z,86.47
2023-02-24T19:34:30.157Z,85.41
2023-02-24T19:36:57.113Z,84.54
2023-02-24T19:39:23.986Z,84.59
2023-02-24T19:41:51.010Z,85.36
2023-02-24T19:44:18.013Z,86.17
2023-02-24T19:46:45.189Z,86.58
2023-02-24T19:49:12.137Z,85.27
2023-02-24T19:51:39.210Z,84.82
2023-02-24T19:54:06.503Z,83.95
2023-02-24T19:56:35.794Z,84.66
2023-02-24T19:59:05.028Z,85.44
2023-02-24T20:01:32.619Z,86.11
2023-02-24T20:04:01.796Z,86.19
2023-02-24T20:06:35.725Z,85.01
2023-02-24T20:09:09.041Z,85.54
2023-02-24T20:11:44.452Z,86.06
2023-02-24T20:14:12.757Z,86.52
2023-02-24T20:16:43.742Z,86.31
2023-02-24T20:19:13.260Z,86.52
2023-02-24T20:21:40.977Z,85.64
2023-02-24T20:24:13.403Z,84.54
2023-02-24T20:26:42.214Z,84.09
2023-02-24T20:29:09.643Z,85.75
2023-02-24T20:31:36.768Z,85.82
2023-02-24T20:34:06.068Z,85.29
2023-02-24T20:36:33.115Z,85.02
2023-02-24T20:39:00.287Z,84.93
2023-02-24T20:41:29.424Z,83.69
2023-02-24T20:43:56.511Z,83.67
2023-02-24T20:46:27.437Z,84.21
2023-02-24T20:49:02.961Z,84.61
2023-02-24T20:51:31.522Z,84.58
2023-02-24T20:53:58.856Z,84.28
2023-02-24T20:56:34.203Z,83.71
2023-02-24T20:59:06.798Z,83.18
2023-02-24T21:01:35.172Z,83.59
2023-02-24T21:04:03.129Z,83.25
2023-02-24T21:06:30.268Z,83.83
2023-02-24T21:08:58.417Z,82.88
2023-02-24T21:11:26.013Z,84.31
2023-02-24T21:13:53.596Z,83.54
2023-02-24T21:16:21.882Z,84.29
2023-02-24T21:18:51.573Z,83.69
2023-02-24T21:21:19.924Z,83.43
2023-02-24T21:23:47.911Z,83.32
2023-02-24T21:26:15.307Z,82.89
2023-02-24T21:28:42.329Z,82.73
2023-02-24T21:31:11.392Z,82.50
2023-02-24T21:33:38.637Z,81.79
2023-02-24T21:36:09.719Z,81.12
2023-02-24T21:38:37.713Z,81.41
2023-02-24T21:41:07.508Z,81.37
2023-02-24T21:43:34.611Z,81.26
2023-02-24T21:46:06.854Z,80.96
2023-02-24T21:48:34.167Z,80.35
2023-02-24T21:51:07.080Z,80.17
2023-02-24T21:53:35.906Z,80.56
2023-02-24T21:56:04.873Z,80.65
2023-02-24T21:58:33.122Z,82.33
2023-02-24T22:01:00.184Z,82.22
2023-02-24T22:03:28.132Z,81.80
2023-02-24T22:05:55.087Z,82.65
2023-02-24T22:08:22.234Z,83.88
2023-02-24T22:10:58.820Z,83.61
2023-02-24T22:13:25.969Z,83.00
2023-02-24T22:15:53.136Z,83.10
2023-02-24T22:18:21.235Z,82.39
2023-02-24T22:20:48.321Z,81.62
2023-02-24T22:23:15.226Z,82.03
2023-02-24T22:25:42.098Z,81.58
2023-02-24T22:28:09.023Z,80.19
2023-02-24T22:30:36.200Z,80.38
2023-02-24T22:33:03.231Z,79.01
2023-02-24T22:35:30.146Z,79.24
2023-02-24T22:37:57.357Z,79.69
2023-02-24T22:40:24.343Z,79.28
2023-02-24T22:42:51.228Z,79.14
2023-02-24T22:45:18.243Z,78.15
2023-02-24T22:47:45.165Z,77.04
2023-02-24T22:50:12.287Z,76.93
2023-02-24T22:52:39.982Z,76.64
2023-02-24T22:55:07.487Z,75.57
2023-02-24T22:57:35.011Z,76.15
2023-02-24T23:00:02.018Z,76.59
2023-02-24T23:02:28.922Z,76.12
2023-02-24T23:04:57.447Z,75.37
2023-02-24T23:07:24.323Z,74.56
2023-02-24T23:09:53.142Z,74.00
2023-02-24T23:12:22.366Z,75.66
2023-02-24T23:14:49.353Z,75.27
2023-02-24T23:17:16.406Z,74.35
2023-02-24T23:19:43.301Z,74.07
2023-02-24T23:22:10.270Z,73.45
2023-02-24T23:24:37.259Z,72.39
2023-02-24T23:27:04.405Z,74.30
2023-02-24T23:29:31.327Z,74.81
2023-02-24T23:31:58.533Z,74.77
2023-02-24T23:34:25.773Z,74.49
2023-02-24T23:36:53.210Z,74.22
2023-02-24T23:39:23.650Z,74.48
2023-02-24T23:41:56.752Z,75.75
2023-02-24T23:44:24.049Z,76.28
2023-02-24T23:46:51.039Z,74.97
2023-02-24T23:49:17.957Z,74.68
2023-02-24T23:51:48.814Z,74.44
2023-02-24T23:54:19.284Z,74.72
2023-02-24T23:56:46.687Z,75.23
2023-02-24T23:59:14.529Z,75.83
